createdAt,value
2019-05-09T00:02:25.763Z,5.41
2019-05-09T00:04:56.514Z,5.64
2019-05-09T00:07:26.959Z,5.60
2019-05-09T00:09:58.422Z,5.30
2019-05-09T00:12:29.208Z,5.27
2019-05-09T00:14:59.553Z,5.34
2019-05-09T00:17:29.964Z,5.34
2019-05-09T00:20:05.688Z,5.10
2019-05-09T00:22:36.368Z,5.10
2019-05-09T00:25:06.669Z,5.16
2019-05-09T00:27:37.558Z,5.18
2019-05-09T00:30:08.590Z,5.19
2019-05-09T00:32:43.059Z,5.34
2019-05-09T00:35:38.385Z,5.30
2019-05-09T00:38:09.707Z,5.13
2019-05-09T00:40:54.626Z,5.30
2019-05-09T00:43:13.171Z,5.14
2019-05-09T00:46:04.076Z,5.03
2019-05-09T00:48:41.325Z,4.92
2019-05-09T00:51:14.069Z,4.86
2019-05-09T00:53:45.082Z,4.76
2019-05-09T00:56:16.674Z,4.80
2019-05-09T00:58:47.373Z,5.02
2019-05-09T01:01:17.681Z,4.89
2019-05-09T01:03:48.165Z,4.79
2019-05-09T01:06:18.671Z,4.72
2019-05-09T01:08:49.394Z,4.71
2019-05-09T01:11:19.819Z,4.82
2019-05-09T01:13:50.105Z,4.75
2019-05-09T01:16:20.576Z,4.63
2019-05-09T01:18:51.301Z,4.59
2019-05-09T01:21:23.873Z,4.56
2019-05-09T01:23:54.237Z,4.47
2019-05-09T01:26:24.941Z,4.50
2019-05-09T01:28:55.230Z,4.69
2019-05-09T01:31:25.513Z,4.88
2019-05-09T01:34:04.656Z,4.55
2019-05-09T01:36:54.044Z,4.66
2019-05-09T01:39:24.489Z,4.77
2019-05-09T01:41:54.787Z,4.56
2019-05-09T01:44:25.147Z,4.54
2019-05-09T01:46:55.904Z,4.47
2019-05-09T01:49:26.231Z,4.42
2019-05-09T01:51:56.678Z,4.55
2019-05-09T01:54:28.311Z,4.60
2019-05-09T01:56:58.855Z,4.75
2019-05-09T01:59:29.184Z,4.57
2019-05-09T02:02:00.006Z,4.63
2019-05-09T02:04:30.715Z,4.59
2019-05-09T02:07:01.001Z,4.52
2019-05-09T02:09:33.968Z,4.63
2019-05-09T02:12:04.298Z,4.76
2019-05-09T02:14:43.509Z,4.76
2019-05-09T02:17:39.229Z,5.01
2019-05-09T02:20:10.052Z,5.08
2019-05-09T02:22:40.453Z,5.02
2019-05-09T02:25:13.627Z,5.04
2019-05-09T02:27:43.912Z,4.87
2019-05-09T02:30:16.413Z,4.91
2019-05-09T02:32:46.984Z,4.90
2019-05-09T02:35:17.745Z,4.92
2019-05-09T02:37:49.783Z,4.95
2019-05-09T02:40:20.971Z,4.80
2019-05-09T02:42:51.292Z,4.97
2019-05-09T02:45:23.304Z,5.15
2019-05-09T02:47:53.627Z,4.92
2019-05-09T02:50:24.270Z,5.09
2019-05-09T02:52:54.941Z,5.26
2019-05-09T02:55:25.260Z,5.32
2019-05-09T02:57:59.195Z,5.58
2019-05-09T03:00:54.911Z,5.55
2019-05-09T03:03:29.040Z,5.45
2019-05-09T03:05:59.964Z,5.40
2019-05-09T03:08:30.693Z,5.21
2019-05-09T03:11:00.981Z,5.54
2019-05-09T03:13:31.438Z,5.72
2019-05-09T03:16:09.340Z,5.70
2019-05-09T03:18:39.878Z,5.90
2019-05-09T03:21:25.636Z,5.95
2019-05-09T03:23:58.921Z,6.15
2019-05-09T03:26:32.382Z,6.13
2019-05-09T03:29:09.134Z,6.16
2019-05-09T03:31:40.048Z,6.37
2019-05-09T03:34:10.776Z,6.33
2019-05-09T03:36:41.118Z,6.51
2019-05-09T03:39:11.664Z,6.44
2019-05-09T03:41:42.401Z,6.49
2019-05-09T03:44:12.808Z,6.48
2019-05-09T03:47:02.022Z,6.82
2019-05-09T03:49:32.638Z,6.78
2019-05-09T03:52:03.361Z,6.81
2019-05-09T03:54:34.095Z,6.77
2019-05-09T03:57:11.617Z,6.75
2019-05-09T03:59:42.116Z,6.81
2019-05-09T04:02:12.747Z,7.09
2019-05-09T04:04:43.049Z,6.84
2019-05-09T04:07:13.381Z,6.98
2019-05-09T04:09:43.771Z,7.22
2019-05-09T04:12:14.205Z,7.44
2019-05-09T04:14:44.497Z,7.34
2019-05-09T04:17:15.172Z,7.21
2019-05-09T04:19:47.731Z,7.00
2019-05-09T04:22:18.305Z,7.10
2019-05-09T04:24:49.104Z,7.27
2019-05-09T04:27:25.174Z,7.13
2019-05-09T04:29:57.458Z,7.36
2019-05-09T04:32:27.903Z,7.38
2019-05-09T04:34:58.247Z,7.42
2019-05-09T04:37:31.123Z,7.49
2019-05-09T04:40:03.286Z,7.30
2019-05-09T04:42:35.005Z,7.65
2019-05-09T04:45:24.387Z,7.91
2019-05-09T04:47:54.990Z,7.85
2019-05-09T04:50:25.312Z,8.02
2019-05-09T04:52:58.042Z,8.33
2019-05-09T04:55:30.465Z,8.09
2019-05-09T04:58:01.120Z,8.37
2019-05-09T05:00:50.514Z,8.49
2019-05-09T05:03:20.827Z,8.63
2019-05-09T05:05:51.420Z,8.73
2019-05-09T05:08:21.863Z,9.08
2019-05-09T05:10:52.186Z,8.99
2019-05-09T05:13:26.622Z,9.07
2019-05-09T05:15:55.162Z,9.13
2019-05-09T05:18:25.521Z,9.25
2019-05-09T05:20:57.564Z,9.59
2019-05-09T05:23:34.849Z,9.61
2019-05-09T05:26:05.204Z,9.73
2019-05-09T05:28:38.038Z,10.13
2019-05-09T05:31:07.952Z,10.13
2019-05-09T05:33:51.191Z,10.31
2019-05-09T05:36:19.822Z,10.26
2019-05-09T05:38:50.222Z,10.13
2019-05-09T05:41:20.602Z,10.03
2019-05-09T05:43:51.261Z,10.41
2019-05-09T05:46:39.146Z,10.78
2019-05-09T05:49:09.542Z,10.83
2019-05-09T05:51:49.627Z,11.19
2019-05-09T05:54:23.320Z,11.17
2019-05-09T05:56:53.661Z,11.56
2019-05-09T05:59:24.438Z,11.92
2019-05-09T06:01:54.965Z,11.97
2019-05-09T06:04:27.551Z,11.24
2019-05-09T06:06:58.821Z,11.74
2019-05-09T06:09:30.416Z,11.83
2019-05-09T06:12:00.947Z,11.92
2019-05-09T06:14:31.473Z,12.03
2019-05-09T06:17:01.814Z,12.36
2019-05-09T06:19:32.525Z,12.14
2019-05-09T06:22:03.103Z,12.36
2019-05-09T06:24:33.406Z,12.48
2019-05-09T06:27:06.992Z,12.75
2019-05-09T06:29:38.661Z,13.07
2019-05-09T06:32:08.959Z,13.12
2019-05-09T06:34:41.978Z,13.21
2019-05-09T06:37:11.319Z,13.17
2019-05-09T06:39:41.715Z,13.07
2019-05-09T06:42:12.078Z,13.04
2019-05-09T06:44:58.409Z,13.20
2019-05-09T06:47:32.455Z,13.31
2019-05-09T06:50:07.976Z,13.77
2019-05-09T06:52:39.408Z,14.09
2019-05-09T06:55:10.109Z,14.00
2019-05-09T06:57:43.012Z,14.00
2019-05-09T07:00:21.889Z,14.43
2019-05-09T07:03:00.847Z,14.45
2019-05-09T07:05:53.370Z,14.63
2019-05-09T07:08:32.368Z,14.76
2019-05-09T07:11:02.759Z,15.24
2019-05-09T07:13:33.114Z,14.63
2019-05-09T07:16:04.004Z,14.68
2019-05-09T07:18:34.806Z,14.48
2019-05-09T07:21:08.057Z,15.01
2019-05-09T07:23:38.202Z,15.16
2019-05-09T07:26:17.966Z,15.07
2019-05-09T07:28:49.836Z,15.23
2019-05-09T07:31:28.541Z,15.63
2019-05-09T07:34:18.321Z,15.29
2019-05-09T07:36:48.339Z,15.22
2019-05-09T07:39:18.816Z,15.15
2019-05-09T07:41:49.362Z,15.57
2019-05-09T07:44:20.226Z,15.80
2019-05-09T07:47:07.333Z,15.83
2019-05-09T07:49:37.776Z,16.16
2019-05-09T07:52:10.390Z,16.37
2019-05-09T07:54:41.244Z,16.26
2019-05-09T07:57:12.039Z,16.67
2019-05-09T07:59:42.763Z,16.67
2019-05-09T08:02:13.598Z,16.66
2019-05-09T08:04:44.342Z,16.65
2019-05-09T08:07:17.465Z,17.16
2019-05-09T08:09:47.775Z,17.24
2019-05-09T08:12:18.970Z,17.35
2019-05-09T08:15:07.457Z,17.62
2019-05-09T08:17:24.650Z,17.71
2019-05-09T08:19:58.349Z,17.89
2019-05-09T08:22:41.086Z,18.24
2019-05-09T08:25:11.985Z,18.02
2019-05-09T08:27:42.728Z,17.73
2019-05-09T08:30:13.531Z,18.03
2019-05-09T08:32:44.305Z,18.06
2019-05-09T08:35:15.025Z,18.25
2019-05-09T08:37:47.589Z,18.46
2019-05-09T08:40:21.131Z,18.65
2019-05-09T08:42:50.234Z,18.79
2019-05-09T08:45:27.622Z,18.97
2019-05-09T08:47:53.800Z,19.01
2019-05-09T08:50:48.110Z,19.32
2019-05-09T08:53:19.123Z,19.66
2019-05-09T08:55:49.815Z,19.87
2019-05-09T08:58:20.619Z,19.32
2019-05-09T09:00:51.359Z,19.54
2019-05-09T09:03:22.194Z,19.92
2019-05-09T09:05:52.649Z,19.89
2019-05-09T09:08:23.304Z,20.30
2019-05-09T09:10:55.018Z,20.41
2019-05-09T09:13:25.745Z,20.39
2019-05-09T09:16:11.662Z,20.68
2019-05-09T09:18:29.149Z,20.78
2019-05-09T09:20:59.906Z,20.73
2019-05-09T09:23:42.895Z,20.78
2019-05-09T09:26:03.148Z,20.76
2019-05-09T09:28:33.896Z,20.47
2019-05-09T09:31:04.572Z,20.70
2019-05-09T09:33:37.474Z,20.95
2019-05-09T09:36:08.754Z,21.06
2019-05-09T09:38:39.373Z,20.98
2019-05-09T09:41:10.056Z,20.97
2019-05-09T09:43:40.746Z,21.14
2019-05-09T09:46:14.660Z,20.83
2019-05-09T09:48:44.063Z,21.05
2019-05-09T09:51:14.782Z,21.20
2019-05-09T09:53:45.528Z,21.05
2019-05-09T09:56:18.177Z,21.12
2019-05-09T09:58:57.668Z,20.74
2019-05-09T10:01:30.740Z,20.78
2019-05-09T10:04:16.683Z,20.69
2019-05-09T10:06:39.691Z,21.16
2019-05-09T10:09:10.692Z,21.09
2019-05-09T10:11:41.356Z,21.11
2019-05-09T10:14:15.273Z,21.31
2019-05-09T10:17:23.186Z,20.92
2019-05-09T10:20:14.846Z,21.06
2019-05-09T10:22:56.837Z,20.83
2019-05-09T10:25:18.397Z,20.59
2019-05-09T10:27:49.299Z,20.51
2019-05-09T10:30:28.502Z,21.09
2019-05-09T10:32:59.000Z,21.22
2019-05-09T10:35:29.775Z,20.78
2019-05-09T10:38:00.554Z,20.71
2019-05-09T10:40:31.343Z,21.18
2019-05-09T10:43:34.643Z,21.22
2019-05-09T10:46:10.408Z,21.66
2019-05-09T10:48:43.809Z,21.67
2019-05-09T10:51:14.511Z,21.75
2019-05-09T10:53:45.281Z,22.06
2019-05-09T10:56:18.813Z,22.28
2019-05-09T10:58:48.553Z,22.22
2019-05-09T11:01:19.269Z,22.79
2019-05-09T11:03:49.715Z,22.83
2019-05-09T11:06:20.195Z,22.82
2019-05-09T11:08:50.614Z,22.49
2019-05-09T11:11:21.310Z,21.84
2019-05-09T11:13:51.951Z,22.46
2019-05-09T11:16:22.674Z,21.81
2019-05-09T11:18:53.402Z,21.43
2019-05-09T11:21:24.300Z,21.51
2019-05-09T11:23:54.940Z,21.73
2019-05-09T11:26:28.162Z,21.62
2019-05-09T11:28:58.767Z,20.50
2019-05-09T11:31:29.854Z,20.74
2019-05-09T11:34:00.679Z,20.86
2019-05-09T11:36:31.154Z,20.32
2019-05-09T11:39:01.629Z,19.88
2019-05-09T11:41:33.269Z,19.17
2019-05-09T11:44:04.197Z,18.25
2019-05-09T11:46:34.505Z,16.99
2019-05-09T11:49:05.232Z,16.75
2019-05-09T11:51:35.940Z,16.11
2019-05-09T11:54:08.875Z,16.20
2019-05-09T11:56:38.634Z,14.41
2019-05-09T11:59:09.365Z,15.88
2019-05-09T12:01:40.036Z,15.97
2019-05-09T12:04:10.382Z,15.21
2019-05-09T12:06:41.047Z,14.88
2019-05-09T12:09:14.482Z,14.85
2019-05-09T12:11:44.535Z,14.91
2019-05-09T12:14:15.561Z,15.05
2019-05-09T12:16:48.026Z,15.28
2019-05-09T12:19:18.301Z,15.20
2019-05-09T12:21:48.894Z,15.16
2019-05-09T12:24:19.604Z,15.12
2019-05-09T12:26:50.965Z,14.93
2019-05-09T12:29:24.439Z,14.73
2019-05-09T12:31:54.721Z,14.78
2019-05-09T12:34:27.678Z,14.53
2019-05-09T12:36:58.557Z,14.72
2019-05-09T12:39:29.166Z,15.11
2019-05-09T12:42:00.010Z,15.41
2019-05-09T12:44:30.771Z,15.61
2019-05-09T12:47:01.069Z,16.06
2019-05-09T12:49:31.592Z,16.28
2019-05-09T12:52:03.523Z,16.83
2019-05-09T12:54:33.800Z,16.91
2019-05-09T12:57:04.246Z,17.32
2019-05-09T12:59:46.480Z,17.43
2019-05-09T13:02:06.815Z,17.89
2019-05-09T13:04:38.202Z,17.68
2019-05-09T13:07:08.716Z,17.68
2019-05-09T13:09:39.206Z,17.53
2019-05-09T13:12:10.133Z,17.56
2019-05-09T13:14:40.658Z,17.62
2019-05-09T13:17:22.124Z,16.44
2019-05-09T13:19:52.750Z,16.97
2019-05-09T13:22:23.219Z,17.17
2019-05-09T13:24:53.538Z,17.28
2019-05-09T13:27:24.217Z,17.33
2019-05-09T13:29:54.828Z,17.76
2019-05-09T13:32:27.846Z,18.46
2019-05-09T13:34:57.948Z,18.45
2019-05-09T13:37:29.545Z,18.69
2019-05-09T13:40:00.420Z,19.02
2019-05-09T13:42:31.153Z,18.84
2019-05-09T13:45:01.781Z,18.81
2019-05-09T13:47:32.524Z,18.81
2019-05-09T13:50:03.323Z,18.65
2019-05-09T13:52:33.649Z,19.06
2019-05-09T13:55:04.178Z,18.86
2019-05-09T13:57:34.783Z,18.80
2019-05-09T14:00:08.179Z,18.38
2019-05-09T14:02:38.408Z,18.19
2019-05-09T14:05:09.365Z,17.77
2019-05-09T14:07:39.692Z,17.75
2019-05-09T14:10:10.554Z,17.10
2019-05-09T14:12:40.857Z,16.84
2019-05-09T14:15:11.671Z,15.82
2019-05-09T14:17:49.825Z,15.70
2019-05-09T14:20:14.854Z,15.49
2019-05-09T14:22:45.539Z,15.40
2019-05-09T14:25:19.186Z,15.36
2019-05-09T14:27:51.721Z,15.13
2019-05-09T14:30:20.544Z,15.02
2019-05-09T14:32:51.303Z,14.89
2019-05-09T14:35:21.625Z,14.88
2019-05-09T14:37:52.079Z,14.64
2019-05-09T14:40:22.576Z,14.75
2019-05-09T14:42:53.160Z,14.37
2019-05-09T14:45:23.719Z,14.38
2019-05-09T14:47:54.151Z,14.22
2019-05-09T14:50:24.578Z,14.02
2019-05-09T14:52:55.409Z,13.92
2019-05-09T14:55:25.731Z,13.78
2019-05-09T14:57:57.842Z,13.76
2019-05-09T15:00:28.987Z,13.77
2019-05-09T15:02:59.504Z,13.76
2019-05-09T15:05:29.852Z,13.67
2019-05-09T15:08:00.637Z,13.72
2019-05-09T15:10:31.160Z,13.64
2019-05-09T15:13:01.913Z,13.57
2019-05-09T15:15:32.841Z,13.52
2019-05-09T15:18:03.433Z,13.45
2019-05-09T15:20:34.181Z,13.24
2019-05-09T15:23:04.494Z,13.31
2019-05-09T15:25:34.802Z,13.12
2019-05-09T15:28:08.267Z,13.19
2019-05-09T15:30:38.630Z,13.17
2019-05-09T15:33:09.044Z,13.32
2019-05-09T15:35:39.449Z,13.41
2019-05-09T15:38:10.866Z,13.30
2019-05-09T15:40:41.156Z,13.24
2019-05-09T15:43:12.000Z,13.05
2019-05-09T15:45:51.179Z,12.90
2019-05-09T15:48:21.963Z,13.18
2019-05-09T15:50:52.501Z,13.30
2019-05-09T15:53:23.101Z,13.63
2019-05-09T15:55:53.905Z,13.64
2019-05-09T15:58:24.741Z,13.71
2019-05-09T16:00:55.071Z,13.77
2019-05-09T16:03:27.819Z,14.00
2019-05-09T16:05:58.422Z,14.07
2019-05-09T16:08:29.019Z,13.75
2019-05-09T16:10:59.449Z,13.35
2019-05-09T16:13:30.122Z,13.29
2019-05-09T16:16:00.414Z,13.32
2019-05-09T16:18:31.068Z,13.76
2019-05-09T16:21:01.649Z,13.82
2019-05-09T16:23:32.066Z,13.70
2019-05-09T16:26:02.429Z,13.82
2019-05-09T16:28:33.430Z,13.95
2019-05-09T16:31:03.772Z,13.84
2019-05-09T16:33:34.118Z,13.86
2019-05-09T16:36:04.515Z,13.95
2019-05-09T16:38:42.968Z,14.01
2019-05-09T16:41:07.806Z,13.83
2019-05-09T16:43:39.297Z,13.73
2019-05-09T16:46:10.112Z,13.52
2019-05-09T16:48:40.537Z,13.27
2019-05-09T16:51:11.009Z,13.13
2019-05-09T16:53:41.454Z,12.73
2019-05-09T16:56:12.234Z,12.33
2019-05-09T16:58:42.917Z,12.01
2019-05-09T17:01:13.219Z,12.05
2019-05-09T17:03:43.668Z,11.90
2019-05-09T17:06:14.085Z,11.88
2019-05-09T17:08:44.494Z,12.08
2019-05-09T17:11:15.042Z,12.17
2019-05-09T17:13:45.913Z,12.15
2019-05-09T17:16:17.763Z,11.84
2019-05-09T17:18:48.705Z,11.78
2019-05-09T17:21:37.626Z,11.87
2019-05-09T17:24:11.681Z,11.61
2019-05-09T17:26:42.654Z,11.60
2019-05-09T17:29:13.981Z,11.63
2019-05-09T17:31:44.598Z,11.76
2019-05-09T17:34:17.763Z,11.66
2019-05-09T17:36:47.392Z,11.92
2019-05-09T17:39:18.611Z,12.01
2019-05-09T17:41:49.543Z,11.96
2019-05-09T17:44:19.979Z,12.10
2019-05-09T17:46:50.288Z,12.10
2019-05-09T17:49:21.063Z,12.24
2019-05-09T17:51:51.604Z,12.34
2019-05-09T17:54:22.352Z,12.30
2019-05-09T17:56:52.911Z,12.36
2019-05-09T17:59:23.300Z,12.20
2019-05-09T18:01:54.222Z,12.48
2019-05-09T18:04:24.606Z,12.48
2019-05-09T18:06:55.030Z,12.41
2019-05-09T18:09:28.328Z,12.54
2019-05-09T18:11:58.230Z,12.52
2019-05-09T18:14:28.531Z,12.41
2019-05-09T18:17:00.177Z,12.44
2019-05-09T18:19:30.809Z,12.33
2019-05-09T18:22:01.472Z,12.56
2019-05-09T18:24:32.142Z,12.46
2019-05-09T18:27:02.647Z,12.36
2019-05-09T18:29:33.400Z,12.21
2019-05-09T18:32:28.888Z,12.39
2019-05-09T18:35:12.716Z,12.38
2019-05-09T18:37:44.642Z,12.25
2019-05-09T18:40:18.022Z,12.11
2019-05-09T18:42:49.248Z,11.91
2019-05-09T18:45:21.608Z,11.96
2019-05-09T18:47:52.381Z,11.91
2019-05-09T18:50:22.886Z,12.03
2019-05-09T18:52:53.716Z,12.26
2019-05-09T18:55:24.522Z,12.31
2019-05-09T18:57:55.908Z,12.39
2019-05-09T19:00:27.249Z,12.30
2019-05-09T19:02:57.583Z,12.27
2019-05-09T19:05:28.436Z,12.42
2019-05-09T19:07:59.401Z,12.35
2019-05-09T19:10:29.764Z,12.09
2019-05-09T19:13:00.391Z,11.95
2019-05-09T19:15:40.373Z,11.87
2019-05-09T19:18:29.759Z,11.84
2019-05-09T19:21:14.155Z,12.04
2019-05-09T19:23:44.914Z,12.05
2019-05-09T19:26:33.174Z,12.08
2019-05-09T19:29:03.698Z,12.34
2019-05-09T19:31:34.025Z,12.24
2019-05-09T19:34:05.271Z,12.32
2019-05-09T19:36:36.140Z,12.23
2019-05-09T19:39:12.620Z,12.40
2019-05-09T19:41:43.182Z,12.31
2019-05-09T19:44:14.043Z,12.20
2019-05-09T19:46:44.339Z,12.40
2019-05-09T19:49:14.913Z,12.36
2019-05-09T19:51:45.453Z,12.34
2019-05-09T19:54:15.958Z,12.41
2019-05-09T19:56:46.268Z,12.08
2019-05-09T19:59:17.223Z,12.33
2019-05-09T20:01:47.740Z,12.25
2019-05-09T20:04:18.550Z,12.17
2019-05-09T20:06:48.858Z,12.35
2019-05-09T20:09:25.287Z,12.09
2019-05-09T20:12:13.843Z,11.87
2019-05-09T20:14:47.641Z,11.92
2019-05-09T20:17:17.997Z,11.93
2019-05-09T20:19:48.766Z,11.98
2019-05-09T20:22:19.401Z,11.64
2019-05-09T20:24:49.753Z,12.04
2019-05-09T20:27:20.425Z,11.66
2019-05-09T20:29:52.200Z,11.54
2019-05-09T20:32:23.718Z,11.34
2019-05-09T20:34:54.352Z,11.62
2019-05-09T20:37:25.094Z,11.93
2019-05-09T20:39:55.640Z,11.43
2019-05-09T20:42:26.275Z,11.60
2019-05-09T20:44:57.159Z,11.54
2019-05-09T20:47:27.718Z,11.74
2019-05-09T20:49:58.256Z,11.75
2019-05-09T20:52:28.883Z,11.84
2019-05-09T20:54:59.482Z,11.80
2019-05-09T20:57:29.968Z,11.71
2019-05-09T21:00:00.603Z,11.69
2019-05-09T21:02:31.190Z,11.72
2019-05-09T21:05:01.753Z,11.82
2019-05-09T21:07:32.603Z,11.63
2019-05-09T21:10:03.322Z,11.58
2019-05-09T21:12:34.339Z,11.49
2019-05-09T21:15:04.996Z,11.55
2019-05-09T21:17:35.548Z,11.46
2019-05-09T21:20:06.816Z,11.27
2019-05-09T21:22:37.533Z,11.49
2019-05-09T21:25:08.301Z,11.55
2019-05-09T21:27:39.111Z,11.52
2019-05-09T21:30:10.560Z,11.52
2019-05-09T21:32:41.038Z,11.63
2019-05-09T21:35:11.769Z,11.74
2019-05-09T21:37:42.505Z,11.69
2019-05-09T21:40:13.152Z,11.87
2019-05-09T21:42:43.778Z,11.81
2019-05-09T21:45:14.180Z,11.88
2019-05-09T21:47:44.889Z,11.79
2019-05-09T21:50:15.922Z,11.95
2019-05-09T21:52:46.298Z,12.12
2019-05-09T21:55:17.041Z,11.99
2019-05-09T21:57:48.122Z,11.84
2019-05-09T22:00:24.511Z,12.07
2019-05-09T22:02:56.487Z,12.10
2019-05-09T22:05:27.255Z,12.17
2019-05-09T22:07:57.556Z,12.10
2019-05-09T22:10:28.009Z,12.18
2019-05-09T22:12:58.483Z,12.23
2019-05-09T22:15:29.314Z,12.16
2019-05-09T22:17:59.956Z,12.23
2019-05-09T22:20:30.329Z,12.22
2019-05-09T22:23:00.910Z,12.36
2019-05-09T22:25:31.847Z,12.30
2019-05-09T22:28:02.141Z,12.24
2019-05-09T22:30:32.535Z,12.28
2019-05-09T22:33:02.950Z,12.16
2019-05-09T22:35:33.233Z,11.91
2019-05-09T22:38:03.763Z,11.96
2019-05-09T22:40:34.458Z,11.97
2019-05-09T22:43:05.200Z,11.83
2019-05-09T22:45:35.980Z,12.06
2019-05-09T22:48:06.285Z,12.03
2019-05-09T22:50:36.644Z,11.92
2019-05-09T22:53:07.250Z,11.74
2019-05-09T22:55:37.591Z,11.91
2019-05-09T22:58:07.948Z,11.99
2019-05-09T23:00:38.499Z,11.66
2019-05-09T23:03:08.986Z,11.79
2019-05-09T23:05:39.328Z,11.62
2019-05-09T23:08:10.045Z,11.88
2019-05-09T23:10:40.717Z,11.27
2019-05-09T23:13:11.149Z,11.70
2019-05-09T23:15:41.848Z,11.88
2019-05-09T23:18:12.319Z,11.67
2019-05-09T23:20:54.652Z,11.80
2019-05-09T23:23:41.356Z,11.75
2019-05-09T23:26:14.390Z,11.45
2019-05-09T23:28:45.180Z,11.47
2019-05-09T23:31:20.014Z,11.75
2019-05-09T23:33:50.415Z,11.70
2019-05-09T23:36:21.208Z,11.67
2019-05-09T23:39:15.062Z,11.80
2019-05-09T23:41:45.412Z,11.50
2019-05-09T23:44:15.879Z,11.67
2019-05-09T23:46:46.674Z,11.73
2019-05-09T23:49:17.018Z,11.60
2019-05-09T23:51:48.627Z,11.43
2019-05-09T23:54:47.221Z,11.64
2019-05-09T23:57:28.239Z,11.61
